Time;durP1;ratioP1;P1;durP2;ratioP2;P2;SDS_P1;SDS_P2;PMS_P1;PMS_P2;Temp;Humidity;BMP_temperature;BMP_pressure;BME280_temperature;BME280_humidity;BME280_pressure;Samples;Min_cycle;Max_cycle;Signal;HPM_P1;HPM_P2
2021/07/18 00:02:14;;;;;;;8.88;3.60;;;;;;;21.38;56.77;100602.91;6066994;23;20027;-83
2021/07/18 00:04:41;;;;;;;8.27;3.28;;;;;;;21.37;56.71;100601.22;6066813;23;20043;-83
2021/07/18 00:07:08;;;;;;;7.32;3.25;;;;;;;21.36;56.67;100603.03;6071316;23;20029;-81
2021/07/18 00:09:34;;;;;;;6.75;3.53;;;;;;;21.34;56.75;100599.63;6072317;23;20026;-81
2021/07/18 00:12:02;;;;;;;6.00;3.60;;;;;;;21.33;56.96;100603.28;6072812;23;20027;-82
2021/07/18 00:14:29;;;;;;;4.55;3.13;;;;;;;21.31;56.76;100599.91;6067977;23;20031;-83
2021/07/18 00:16:56;;;;;;;8.38;3.75;;;;;;;21.30;56.86;100598.22;6066853;23;20041;-84
2021/07/18 00:19:23;;;;;;;7.15;3.33;;;;;;;21.27;57.01;100598.50;6067671;23;20478;-84
2021/07/18 00:21:49;;;;;;;6.18;3.65;;;;;;;21.24;57.19;100598.75;6068592;23;20034;-83
2021/07/18 00:24:16;;;;;;;8.73;3.42;;;;;;;21.20;57.07;100599.03;6068103;23;20425;-83
2021/07/18 00:26:43;;;;;;;5.30;2.72;;;;;;;21.17;57.33;100585.94;6068099;23;20494;-82
2021/07/18 00:29:09;;;;;;;6.93;3.22;;;;;;;21.15;57.43;100584.38;6067750;23;20043;-84
2021/07/18 00:31:36;;;;;;;6.40;3.17;;;;;;;21.13;57.59;100579.16;6067460;23;20027;-83
2021/07/18 00:34:03;;;;;;;5.50;2.65;;;;;;;21.09;57.41;100575.06;6066476;23;20027;-83
2021/07/18 00:36:30;;;;;;;6.38;3.35;;;;;;;21.07;57.48;100579.69;6067966;23;20030;-83
2021/07/18 00:38:57;;;;;;;8.20;3.00;;;;;;;21.05;57.65;100585.19;6068309;23;20023;-82
2021/07/18 00:41:23;;;;;;;5.95;3.17;;;;;;;21.03;57.79;100580.94;6067464;23;20019;-84
2021/07/18 00:43:51;;;;;;;10.43;3.25;;;;;;;21.00;57.96;100583.91;6067240;23;20023;-83
2021/07/18 00:46:17;;;;;;;8.55;3.38;;;;;;;20.97;57.99;100576.97;6065976;23;20022;-83
2021/07/18 00:48:44;;;;;;;5.65;3.30;;;;;;;20.94;57.97;100578.09;6066387;23;20031;-85
2021/07/18 00:51:11;;;;;;;6.63;3.05;;;;;;;20.91;57.91;100575.72;6067375;23;20031;-82
2021/07/18 00:53:37;;;;;;;5.55;2.90;;;;;;;20.88;58.03;100575.13;6067694;23;20027;-84
2021/07/18 00:56:04;;;;;;;8.02;2.92;;;;;;;20.86;58.13;100580.56;6066950;23;20467;-85
2021/07/18 00:58:32;;;;;;;6.50;3.35;;;;;;;20.82;58.17;100579.16;6068126;23;20058;-84
2021/07/18 01:00:58;;;;;;;6.97;3.05;;;;;;;20.80;58.25;100575.75;6067966;23;20023;-85
2021/07/18 01:03:27;;;;;;;8.02;3.30;;;;;;;20.77;58.66;100576.88;6067213;23;20029;-83
2021/07/18 01:05:54;;;;;;;9.38;3.15;;;;;;;;;;6067110;23;20027;-84
2021/07/18 01:08:21;;;;;;;7.68;3.22;;;;;;;20.74;58.37;100581.66;6067617;23;20029;-82
2021/07/18 01:10:47;;;;;;;6.60;2.80;;;;;;;20.70;58.65;100579.25;6068336;23;20467;-83
2021/07/18 01:13:15;;;;;;;7.47;3.33;;;;;;;20.68;58.84;100573.16;6067578;23;20031;-83
2021/07/18 01:15:42;;;;;;;5.65;3.10;;;;;;;20.67;58.72;100574.16;6068713;23;20475;-83
2021/07/18 01:18:10;;;;;;;4.72;2.88;;;;;;;20.65;58.69;100575.28;6068690;23;20467;-84
2021/07/18 01:20:38;;;;;;;7.10;3.38;;;;;;;20.64;59.02;100573.59;6067245;23;20023;-84
2021/07/18 01:23:05;;;;;;;7.70;3.35;;;;;;;20.63;59.12;100580.75;6068360;23;20031;-84
2021/07/18 01:25:33;;;;;;;9.05;3.75;;;;;;;20.63;59.18;100569.22;6067433;23;20471;-84
2021/07/18 01:28:11;;;;;;;4.70;3.38;;;;;;;20.63;59.14;100577.25;6068244;23;20030;-84
2021/07/18 01:30:38;;;;;;;8.63;3.30;;;;;;;20.64;59.17;100570.91;6070234;23;20027;-83
2021/07/18 01:33:05;;;;;;;5.97;3.25;;;;;;;20.63;59.02;100575.41;6071045;23;20035;-83
2021/07/18 01:35:32;;;;;;;7.47;3.35;;;;;;;20.63;58.89;100571.91;6068985;23;20027;-84
2021/07/18 01:37:59;;;;;;;6.28;3.63;;;;;;;20.62;59.43;100572.84;6069929;23;20031;-83
2021/07/18 01:40:27;;;;;;;6.53;3.38;;;;;;;20.61;59.04;100571.16;6070518;23;20023;-83
2021/07/18 01:42:55;;;;;;;7.68;3.10;;;;;;;20.60;59.05;100572.16;6070720;23;20027;-85
2021/07/18 01:45:23;;;;;;;6.70;3.25;;;;;;;20.58;59.02;100572.28;6069879;23;20027;-84
2021/07/18 01:47:50;;;;;;;5.93;3.63;;;;;;;20.56;58.96;100571.59;6070318;23;20055;-85
2021/07/18 01:50:18;;;;;;;6.65;3.35;;;;;;;20.53;58.91;100575.34;6070816;23;20459;-83
2021/07/18 01:52:45;;;;;;;9.05;3.30;;;;;;;20.51;59.16;100569.28;6071064;23;20030;-83
2021/07/18 01:55:13;;;;;;;8.35;3.33;;;;;;;20.49;59.48;100573.09;6070197;23;20419;-85
2021/07/18 01:57:41;;;;;;;6.45;3.60;;;;;;;20.47;59.53;100572.34;6070168;23;20027;-85
2021/07/18 02:00:10;;;;;;;6.03;3.33;;;;;;;20.43;59.67;100567.28;6069553;23;20474;-85
2021/07/18 02:02:41;;;;;;;8.18;3.45;;;;;;;20.41;60.37;100571.06;6070015;23;20463;-85
2021/07/18 02:05:09;;;;;;;7.68;3.65;;;;;;;20.41;59.74;100571.06;6069495;23;20022;-84
2021/07/18 02:07:36;;;;;;;8.85;3.55;;;;;;;20.37;59.89;100573.16;6067631;23;20031;-83
2021/07/18 02:10:03;;;;;;;8.77;3.58;;;;;;;20.37;59.86;100577.66;6068595;23;20018;-84
2021/07/18 02:12:32;;;;;;;8.10;3.40;;;;;;;20.35;59.70;100574.25;6067622;23;20034;-83
2021/07/18 02:14:59;;;;;;;6.35;3.58;;;;;;;20.35;59.67;100567.09;6067027;23;20023;-83
2021/07/18 02:17:26;;;;;;;5.18;3.20;;;;;;;20.35;59.77;100567.09;6068485;23;20035;-82
2021/07/18 02:19:52;;;;;;;7.07;3.28;;;;;;;20.35;59.94;100566.25;6068724;23;20034;-84
2021/07/18 02:22:25;;;;;;;6.18;3.58;;;;;;;20.35;60.55;100566.25;6068390;23;20029;-83
2021/07/18 02:24:52;;;;;;;;;;;;;;;20.35;58.77;100566.25;6069014;23;20049;-83
2021/07/18 02:27:18;;;;;;;5.30;3.28;;;;;;;20.41;59.27;100571.06;6068058;23;19925;-83
2021/07/18 02:29:45;;;;;;;5.28;3.15;;;;;;;20.38;59.40;100566.00;6068708;23;20023;-84
2021/07/18 02:32:12;;;;;;;11.15;3.95;;;;;;;20.36;59.46;100563.44;6068545;23;20375;-84
2021/07/18 02:34:38;;;;;;;8.27;3.65;;;;;;;20.35;nan;100572.44;6068204;23;20026;-83
2021/07/18 02:37:05;;;;;;;8.27;3.78;;;;;;;20.33;59.62;100563.69;6067832;23;20089;-83
2021/07/18 02:39:32;;;;;;;5.55;3.45;;;;;;;20.31;59.50;100560.31;6068440;23;20344;-85
2021/07/18 02:41:58;;;;;;;5.85;3.40;;;;;;;20.29;59.49;100556.91;6068554;23;20026;-84
2021/07/18 02:44:25;;;;;;;6.70;3.55;;;;;;;20.26;59.54;100563.38;6067944;23;20027;-83
2021/07/18 02:46:52;;;;;;;6.57;2.92;;;;;;;20.24;59.83;100560.00;6066342;23;20030;-83
2021/07/18 02:49:18;;;;;;;3.78;3.03;;;;;;;20.23;59.67;100568.16;6068315;23;20029;-83
2021/07/18 02:51:45;;;;;;;6.70;3.50;;;;;;;20.20;59.78;100563.06;6068328;23;20023;-83
2021/07/18 02:54:11;;;;;;;6.55;3.50;;;;;;;20.17;59.94;100557.00;6068085;23;20030;-84
2021/07/18 02:56:38;;;;;;;11.63;3.90;;;;;;;20.14;59.83;100559.94;6068452;23;20039;-82
2021/07/18 02:59:05;;;;;;;5.40;3.30;;;;;;;20.12;60.04;100561.91;6067848;23;20034;-83
2021/07/18 03:01:31;;;;;;;6.00;3.58;;;;;;;20.10;59.83;100563.84;6068238;23;20431;-83
2021/07/18 03:03:58;;;;;;;5.82;3.80;;;;;;;20.07;60.06;100557.91;6067583;23;20027;-83
2021/07/18 03:06:24;;;;;;;5.35;3.40;;;;;;;20.05;60.03;100558.91;6066518;23;20027;-83
2021/07/18 03:08:51;;;;;;;6.85;3.55;;;;;;;20.03;60.20;100555.50;6067870;23;20093;-84
2021/07/18 03:11:17;;;;;;;5.68;3.45;;;;;;;20.02;60.15;100563.63;6068060;23;20030;-85
2021/07/18 03:13:44;;;;;;;6.88;3.53;;;;;;;20.02;60.26;100566.31;6066259;23;20031;-84
2021/07/18 03:16:11;;;;;;;7.82;3.72;;;;;;;20.00;60.45;100557.59;6068304;23;20030;-84
2021/07/18 03:18:37;;;;;;;6.75;3.92;;;;;;;20.00;60.36;100560.25;6067931;23;20356;-84
2021/07/18 03:21:04;;;;;;;4.68;3.35;;;;;;;19.99;60.62;100561.22;6066384;23;20819;-85
2021/07/18 03:23:30;;;;;;;5.70;3.38;;;;;;;19.99;60.61;100553.19;6068236;23;20030;-83
2021/07/18 03:25:57;;;;;;;7.82;3.63;;;;;;;19.99;60.78;100550.53;6066310;23;20074;-84
2021/07/18 03:28:24;;;;;;;4.53;3.35;;;;;;;19.99;60.51;100550.53;6066143;23;20023;-84
2021/07/18 03:30:50;;;;;;;5.95;3.42;;;;;;;19.97;60.58;100547.97;6067534;23;20027;-84
2021/07/18 03:33:17;;;;;;;9.02;3.70;;;;;;;19.99;60.83;100555.88;6066267;23;20094;-84
2021/07/18 03:35:44;;;;;;;7.93;3.17;;;;;;;20.00;60.57;100552.25;6065784;23;20483;-84
2021/07/18 03:38:10;;;;;;;4.10;2.95;;;;;;;20.00;60.61;100552.25;6066533;23;20363;-84
2021/07/18 03:40:37;;;;;;;10.00;3.78;;;;;;;20.00;60.83;100554.91;6067712;23;20025;-84
2021/07/18 03:43:04;;;;;;;8.18;3.85;;;;;;;19.99;60.52;100563.88;6066335;23;20029;-84
2021/07/18 03:45:30;;;;;;;8.68;3.97;;;;;;;20.00;60.66;100557.59;6067663;23;20027;-85
2021/07/18 03:47:57;;;;;;;6.32;3.38;;;;;;;20.01;60.75;100561.94;6065932;23;20362;-84
2021/07/18 03:50:23;;;;;;;6.05;3.10;;;;;;;20.00;60.48;100563.75;6067456;23;20459;-84
2021/07/18 03:52:51;;;;;;;6.82;3.28;;;;;;;20.00;60.49;100563.75;6067406;23;20034;-84
2021/07/18 03:55:18;;;;;;;5.80;3.65;;;;;;;20.00;60.70;100560.25;6066029;23;20451;-84
2021/07/18 03:57:44;;;;;;;7.15;3.70;;;;;;;19.99;60.53;100556.72;6067182;23;20470;-84
2021/07/18 04:00:11;;;;;;;6.20;3.40;;;;;;;19.98;60.53;100560.38;6066308;23;20029;-84
2021/07/18 04:02:38;;;;;;;8.00;4.20;;;;;;;19.97;60.81;100558.66;6067363;23;20018;-84
2021/07/18 04:05:05;;;;;;;4.45;3.50;;;;;;;19.97;60.84;100563.16;6065897;23;20034;-85
2021/07/18 04:07:33;;;;;;;6.53;3.38;;;;;;;19.97;60.92;100566.69;6066124;23;20033;-84
2021/07/18 04:10:01;;;;;;;6.32;3.22;;;;;;;19.96;60.91;100556.94;6066177;23;20027;-84
2021/07/18 04:12:28;;;;;;;6.13;3.70;;;;;;;19.97;60.77;100560.47;6067371;23;20093;-84
2021/07/18 04:14:55;;;;;;;5.07;3.45;;;;;;;19.97;61.07;100560.47;6065810;23;20023;-84
2021/07/18 04:17:22;;;;;;;6.40;3.72;;;;;;;19.96;61.17;100562.28;6067010;23;20034;-84
2021/07/18 04:19:49;;;;;;;8.93;4.28;;;;;;;19.97;61.13;100561.34;6066796;23;20023;-84
2021/07/18 04:22:15;;;;;;;8.30;3.80;;;;;;;19.98;61.26;100559.50;6067240;23;20021;-85
2021/07/18 04:24:42;;;;;;;5.05;3.08;;;;;;;19.98;60.99;100563.06;6065634;23;20034;-84
2021/07/18 04:27:09;;;;;;;8.75;3.67;;;;;;;19.99;61.27;100563.88;6067100;23;20027;-85
2021/07/18 04:29:35;;;;;;;6.32;3.55;;;;;;;19.99;61.22;100555.88;6066645;23;20049;-85
2021/07/18 04:32:02;;;;;;;7.70;3.22;;;;;;;20.00;61.45;100557.59;6066857;23;20026;-86
2021/07/18 04:34:30;;;;;;;6.13;3.67;;;;;;;20.00;61.23;100554.91;6066340;23;20065;-86
2021/07/18 04:36:57;;;;;;;8.68;3.45;;;;;;;20.01;61.12;100565.47;6066611;23;20030;-85
2021/07/18 04:39:24;;;;;;;7.95;3.72;;;;;;;20.01;61.25;100562.81;6065726;23;20034;-86
2021/07/18 04:41:51;;;;;;;6.03;3.50;;;;;;;20.03;61.31;100562.66;6066625;23;20018;-86
2021/07/18 04:44:17;;;;;;;7.10;4.35;;;;;;;20.03;61.33;100568.00;6065234;23;20337;-84
2021/07/18 04:46:44;;;;;;;4.85;3.50;;;;;;;20.04;61.32;100570.53;6067946;23;20035;-85
2021/07/18 04:49:11;;;;;;;7.45;4.15;;;;;;;20.04;61.26;100559.84;6067305;23;20105;-84
2021/07/18 04:51:37;;;;;;;9.32;4.47;;;;;;;20.05;61.45;100569.59;6067723;23;20022;-84
2021/07/18 04:54:04;;;;;;;6.85;4.63;;;;;;;20.07;61.61;100560.59;6068402;23;20027;-84
2021/07/18 04:56:30;;;;;;;8.77;3.42;;;;;;;20.08;61.52;100554.25;6069040;23;20037;-85
2021/07/18 04:58:57;;;;;;;6.70;4.45;;;;;;;20.10;61.55;100562.97;6067933;23;20027;-84
2021/07/18 05:01:26;;;;;;;10.88;4.72;;;;;;;20.11;61.54;100559.34;6067972;23;20019;-85
2021/07/18 05:03:53;;;;;;;4.85;3.95;;;;;;;20.13;61.57;100558.25;6068360;23;20105;-84
2021/07/18 05:06:20;;;;;;;7.25;4.43;;;;;;;20.15;61.67;100564.28;6067861;23;20046;-85
2021/07/18 05:08:47;;;;;;;8.38;4.18;;;;;;;20.17;61.61;100562.34;6070099;23;20027;-84
2021/07/18 05:11:13;;;;;;;9.27;4.65;;;;;;;20.20;61.74;100561.25;6068360;23;20019;-86
2021/07/18 05:13:40;;;;;;;7.05;4.53;;;;;;;20.23;61.85;100565.47;6068443;23;20065;-84
2021/07/18 05:16:07;;;;;;;7.22;4.78;;;;;;;20.26;61.97;100567.91;6069891;23;20065;-86
2021/07/18 05:18:33;;;;;;;10.10;4.30;;;;;;;20.28;61.98;100569.44;6069321;23;20031;-85
2021/07/18 05:21:00;;;;;;;10.20;4.57;;;;;;;20.32;61.79;100572.69;6070258;23;20026;-85
2021/07/18 05:23:26;;;;;;;7.65;4.95;;;;;;;20.34;61.95;100572.56;6071346;23;20027;-84
2021/07/18 05:25:53;;;;;;;8.80;4.30;;;;;;;20.37;61.90;100570.47;6070742;23;20049;-84
2021/07/18 05:28:20;;;;;;;8.15;4.72;;;;;;;20.40;61.97;100575.56;6070131;23;20026;-84
2021/07/18 05:30:46;;;;;;;5.30;4.40;;;;;;;20.43;61.94;100575.31;6069150;23;20046;-85
2021/07/18 05:33:13;;;;;;;7.90;4.53;;;;;;;20.48;61.79;100580.25;6068734;23;20031;-84
2021/07/18 05:35:40;;;;;;;8.05;4.45;;;;;;;20.53;62.16;100574.50;6069116;23;20027;-85
2021/07/18 05:38:07;;;;;;;8.55;4.55;;;;;;;20.54;62.30;100570.84;6067502;23;20459;-86
2021/07/18 05:40:34;;;;;;;9.13;4.70;;;;;;;20.59;62.38;100575.81;6068587;23;20031;-87
2021/07/18 05:43:00;;;;;;;7.63;4.47;;;;;;;20.63;62.41;100570.06;6067240;23;20506;-87
2021/07/18 05:45:27;;;;;;;5.22;3.85;;;;;;;20.66;62.28;100577.81;6069059;23;20027;-88
2021/07/18 05:47:54;;;;;;;5.57;4.43;;;;;;;20.71;62.31;100577.44;6069896;23;20030;-84
2021/07/18 05:50:20;;;;;;;5.72;4.15;;;;;;;20.76;62.21;100579.69;6067511;23;20026;-86
2021/07/18 05:52:47;;;;;;;9.80;4.35;;;;;;;20.80;61.99;100575.75;6069030;23;20028;-85
2021/07/18 05:55:15;;;;;;;6.82;4.63;;;;;;;20.83;62.22;100576.34;6070096;23;20046;-86
2021/07/18 05:57:41;;;;;;;9.88;4.55;;;;;;;20.88;62.05;100573.28;6069431;23;20027;-84
2021/07/18 06:00:10;;;;;;;6.35;4.10;;;;;;;20.90;61.95;100574.00;6069322;23;20027;-86
2021/07/18 06:02:37;;;;;;;9.50;3.95;;;;;;;20.94;61.98;100572.75;6067569;23;20025;-84
2021/07/18 06:05:04;;;;;;;8.32;4.13;;;;;;;20.98;61.78;100572.47;6067398;23;20035;-84
2021/07/18 06:07:31;;;;;;;7.03;3.85;;;;;;;21.01;62.05;100569.53;6069450;23;20035;-84
2021/07/18 06:09:58;;;;;;;6.20;3.83;;;;;;;21.05;61.73;100568.28;6069247;23;20455;-84
2021/07/18 06:12:25;;;;;;;5.38;3.22;;;;;;;21.11;61.95;100577.59;6068386;23;20024;-85
2021/07/18 06:14:51;;;;;;;6.28;3.67;;;;;;;21.15;62.33;100571.81;6067045;23;20023;-88
2021/07/18 06:17:18;;;;;;;6.20;3.50;;;;;;;21.21;61.86;100573.97;6066951;23;20048;-85
2021/07/18 06:19:45;;;;;;;6.88;3.65;;;;;;;21.26;62.15;100565.50;6068591;23;20037;-85
2021/07/18 06:22:11;;;;;;;3.85;2.70;;;;;;;21.31;62.15;100563.25;6068133;23;20038;-84
2021/07/18 06:24:38;;;;;;;7.85;3.45;;;;;;;21.37;61.77;100569.91;6068269;23;20027;-84
2021/07/18 06:27:07;;;;;;;5.50;2.63;;;;;;;21.43;61.61;100568.50;6066592;23;20034;-83
2021/07/18 06:29:34;;;;;;;4.40;2.60;;;;;;;21.50;61.83;100568.78;6068265;23;20031;-85
2021/07/18 06:32:01;;;;;;;7.05;3.13;;;;;;;21.54;61.41;100565.72;6067029;23;20027;-85
2021/07/18 06:34:28;;;;;;;5.32;2.40;;;;;;;21.58;61.45;100567.13;6066392;23;20027;-84
2021/07/18 06:36:55;;;;;;;4.88;2.15;;;;;;;21.65;61.15;100569.22;6068417;23;20033;-85
2021/07/18 06:39:21;;;;;;;6.25;2.28;;;;;;;21.69;61.16;100571.50;6066525;23;20034;-84
2021/07/18 06:41:48;;;;;;;4.63;2.13;;;;;;;21.74;61.07;100565.75;6069037;23;20313;-84
2021/07/18 06:44:15;;;;;;;4.78;2.05;;;;;;;21.80;60.79;100573.22;6070157;23;20023;-83
2021/07/18 06:46:41;;;;;;;5.18;2.50;;;;;;;21.85;60.65;100567.44;6070788;23;20033;-84
2021/07/18 06:49:08;;;;;;;2.80;1.85;;;;;;;21.88;60.11;100569.84;6068136;23;20033;-84
2021/07/18 06:51:35;;;;;;;3.20;1.77;;;;;;;21.93;60.06;100575.59;6066709;23;20018;-86
2021/07/18 06:54:02;;;;;;;3.92;2.05;;;;;;;21.95;60.06;100562.94;6068319;23;20403;-85
2021/07/18 06:56:30;;;;;;;3.65;1.77;;;;;;;21.99;59.90;100572.34;6068389;23;20026;-86
2021/07/18 06:58:57;;;;;;;5.05;2.47;;;;;;;22.03;60.09;100566.72;6066841;23;20046;-84
2021/07/18 07:01:24;;;;;;;4.03;2.42;;;;;;;22.07;60.05;100565.44;6066791;23;20027;-86
2021/07/18 07:03:51;;;;;;;3.78;1.98;;;;;;;22.12;60.19;100565.84;6067778;23;20526;-84
2021/07/18 07:06:18;;;;;;;2.90;1.90;;;;;;;22.17;60.23;100568.97;6066547;23;20526;-85
2021/07/18 07:08:44;;;;;;;3.70;1.83;;;;;;;22.22;60.00;100560.47;6068124;23;20034;-85
2021/07/18 07:11:11;;;;;;;4.45;2.33;;;;;;;22.28;60.32;100569.78;6069398;23;20019;-85
2021/07/18 07:13:37;;;;;;;3.83;2.03;;;;;;;22.33;60.00;100570.19;6068162;23;20042;-83
2021/07/18 07:16:05;;;;;;;4.13;1.75;;;;;;;22.39;59.61;100569.63;6072424;23;20023;-82
2021/07/18 07:18:31;;;;;;;4.32;1.83;;;;;;;22.45;59.40;100579.75;6071191;23;20027;-83
2021/07/18 07:20:58;;;;;;;2.92;1.77;;;;;;;22.50;59.65;100577.47;6070353;23;20030;-84
2021/07/18 07:23:25;;;;;;;6.50;1.90;;;;;;;22.55;59.15;100573.56;6068946;23;20034;-85
2021/07/18 07:25:51;;;;;;;3.30;1.80;;;;;;;22.59;58.85;100572.28;6071491;23;20023;-83
2021/07/18 07:28:21;;;;;;;4.45;1.90;;;;;;;22.63;59.01;100565.63;6068895;23;20493;-86
2021/07/18 07:30:47;;;;;;;5.60;2.05;;;;;;;22.68;59.01;100567.88;6068486;23;20029;-84
2021/07/18 07:33:15;;;;;;;3.47;1.85;;;;;;;22.72;59.17;100571.97;6070825;23;20490;-84
2021/07/18 07:35:42;;;;;;;4.40;2.00;;;;;;;22.76;58.96;100568.81;6072596;23;20027;-82
2021/07/18 07:38:08;;;;;;;3.90;2.03;;;;;;;22.82;58.57;100574.56;6069881;23;20885;-86
2021/07/18 07:40:35;;;;;;;4.22;2.03;;;;;;;22.85;58.54;100567.09;6068940;23;20023;-85
2021/07/18 07:43:02;;;;;;;3.40;1.80;;;;;;;22.89;58.37;100562.25;6070380;23;20045;-86
2021/07/18 07:45:29;;;;;;;2.17;1.63;;;;;;;22.93;58.50;100565.47;6069875;23;20027;-86
2021/07/18 07:47:56;;;;;;;2.38;1.50;;;;;;;22.97;57.64;100561.50;6067387;23;20023;-83
2021/07/18 07:50:23;;;;;;;4.32;1.80;;;;;;;22.99;58.24;100560.38;6069519;23;20026;-83
2021/07/18 07:52:50;;;;;;;2.00;1.50;;;;;;;23.05;58.51;100561.59;6070458;23;20027;-84
2021/07/18 07:55:17;;;;;;;3.13;2.30;;;;;;;23.11;58.02;100560.16;6066779;23;20029;-84
2021/07/18 07:57:43;;;;;;;2.92;1.70;;;;;;;23.15;58.05;100566.94;6068586;23;20050;-84
2021/07/18 08:00:15;;;;;;;2.35;1.73;;;;;;;23.17;57.65;100564.94;6065961;23;20031;-83
2021/07/18 08:02:45;;;;;;;3.70;2.15;;;;;;;23.23;57.49;100564.34;6071835;23;20026;-83
2021/07/18 08:05:12;;;;;;;3.13;1.90;;;;;;;23.27;57.56;100565.72;6072859;23;20027;-82
2021/07/18 08:07:39;;;;;;;2.65;1.60;;;;;;;23.32;57.62;100553.69;6071960;23;20093;-82
2021/07/18 08:10:09;;;;;;;2.92;1.80;;;;;;;23.36;57.72;100561.31;6072776;23;20030;-82
2021/07/18 08:12:36;;;;;;;3.03;1.80;;;;;;;23.41;58.07;100560.88;6072701;23;20494;-83
2021/07/18 08:15:05;;;;;;;5.00;2.10;;;;;;;23.47;57.30;100560.25;6067836;23;20027;-83
2021/07/18 08:17:32;;;;;;;2.58;1.70;;;;;;;23.53;57.15;100559.66;6066647;23;20530;-83
2021/07/18 08:20:00;;;;;;;3.50;2.17;;;;;;;23.59;57.07;100550.13;6072251;23;20030;-83
2021/07/18 08:22:27;;;;;;;5.00;2.10;;;;;;;23.65;57.12;100551.34;6071109;23;20538;-85
2021/07/18 08:24:53;;;;;;;3.25;1.70;;;;;;;23.71;57.64;100553.44;6069025;23;20416;-83
2021/07/18 08:27:20;;;;;;;3.00;2.28;;;;;;;23.78;57.25;100551.78;6068947;23;20023;-86
2021/07/18 08:29:47;;;;;;;3.50;2.00;;;;;;;23.85;57.68;100553.88;6069022;23;20034;-83
2021/07/18 08:32:13;;;;;;;4.70;2.20;;;;;;;23.93;57.26;100553.94;6069365;23;20039;-84
2021/07/18 08:34:40;;;;;;;5.28;2.25;;;;;;;24.02;57.09;100557.53;6069318;23;20045;-83
2021/07/18 08:37:06;;;;;;;3.75;2.00;;;;;;;24.10;57.00;100554.94;6067975;23;20027;-86
2021/07/18 08:39:33;;;;;;;4.78;2.03;;;;;;;24.19;57.03;100551.28;6067986;23;20058;-86
2021/07/18 08:42:00;;;;;;;3.72;2.13;;;;;;;24.28;56.55;100551.34;6067523;23;20047;-85
2021/07/18 08:44:30;;;;;;;7.10;2.50;;;;;;;24.35;55.90;100557.78;6068679;23;20022;-85
2021/07/18 08:46:57;;;;;;;3.63;2.38;;;;;;;24.41;55.59;100556.31;6068903;23;20046;-84
2021/07/18 08:49:23;;;;;;;5.00;2.67;;;;;;;24.45;56.50;100558.50;6068645;23;20049;-85
2021/07/18 08:51:52;;;;;;;4.80;2.72;;;;;;;24.50;56.24;100565.25;6068163;23;20019;-83
2021/07/18 08:54:19;;;;;;;4.07;2.33;;;;;;;24.55;55.89;100561.09;6071042;23;20037;-83
2021/07/18 08:56:49;;;;;;;3.97;2.15;;;;;;;24.59;55.36;100558.91;6067515;23;20029;-84
2021/07/18 08:59:16;;;;;;;4.13;2.33;;;;;;;24.66;55.34;100557.28;6066586;23;20034;-83
2021/07/18 09:01:44;;;;;;;3.75;2.42;;;;;;;24.71;55.42;100554.94;6067031;23;20027;-84
2021/07/18 09:04:11;;;;;;;4.80;2.60;;;;;;;24.78;54.55;100552.44;6067731;23;20471;-88
2021/07/18 09:06:49;;;;;;;2.95;2.35;;;;;;;24.81;54.40;100549.44;6068883;23;20034;-88
2021/07/18 09:09:21;;;;;;;4.80;2.47;;;;;;;24.90;53.77;100550.38;6067293;23;20027;-84
2021/07/18 09:11:57;;;;;;;3.30;2.53;;;;;;;24.96;54.39;100549.69;6067240;23;20023;-86
2021/07/18 09:14:29;;;;;;;3.80;2.30;;;;;;;25.05;54.15;100550.59;6066389;23;20101;-89
2021/07/18 09:16:56;;;;;;;4.38;2.60;;;;;;;25.11;54.68;100549.91;6066782;23;20027;-87
2021/07/18 09:19:31;;;;;;;2.80;2.50;;;;;;;25.17;54.36;100550.25;6065284;23;20459;-88
2021/07/18 09:22:04;;;;;;;3.83;2.38;;;;;;;25.26;53.96;100553.84;6066668;23;20019;-85
2021/07/18 09:24:50;;;;;;;4.57;2.35;;;;;;;25.31;53.75;100549.63;6065153;23;20404;-87
2021/07/18 09:27:25;;;;;;;4.05;2.33;;;;;;;25.40;54.30;100549.63;6067071;23;20044;-86
2021/07/18 09:30:05;;;;;;;4.75;2.58;;;;;;;25.48;53.24;100549.66;6067818;23;20030;-84
2021/07/18 09:32:34;;;;;;;2.83;2.33;;;;;;;25.58;53.89;100549.53;6069442;23;20019;-83
2021/07/18 09:35:09;;;;;;;2.85;2.00;;;;;;;25.64;54.32;100548.84;6069117;23;20029;-85
2021/07/18 09:37:38;;;;;;;2.40;2.05;;;;;;;25.75;53.87;100536.88;6068645;23;20038;-83
2021/07/18 09:40:13;;;;;;;4.60;2.45;;;;;;;25.83;53.59;100534.19;6068429;23;20027;-83
2021/07/18 09:42:42;;;;;;;4.72;2.33;;;;;;;25.94;53.69;100551.88;6068050;23;20023;-84
2021/07/18 09:45:12;;;;;;;3.63;2.30;;;;;;;26.02;53.55;100545.66;6067529;23;20026;-83
2021/07/18 09:48:02;;;;;;;2.70;2.08;;;;;;;26.10;53.46;100544.81;6069227;23;20030;-86
2021/07/18 09:50:34;;;;;;;3.30;1.70;;;;;;;26.24;53.19;100545.97;6068633;23;20463;-86
2021/07/18 09:53:05;;;;;;;3.85;2.05;;;;;;;26.33;52.23;100544.09;6071088;23;20054;-83
2021/07/18 09:55:32;;;;;;;4.35;1.75;;;;;;;26.45;52.28;100539.19;6068895;23;20026;-85
2021/07/18 09:57:59;;;;;;;3.28;1.85;;;;;;;26.53;52.70;100536.47;6066679;23;20032;-85
2021/07/18 10:00:42;;;;;;;2.70;1.67;;;;;;;26.57;51.86;100539.66;6070920;23;20113;-84
2021/07/18 10:03:16;;;;;;;;;;;;;;;26.67;53.17;100534.91;6070289;23;20030;-83
2021/07/18 10:05:43;;;;;;;4.03;1.45;;;;;;;26.83;51.93;100530.44;6068852;23;19996;-85
2021/07/18 10:08:11;;;;;;;2.00;1.58;;;;;;;26.89;51.32;100519.78;6068265;23;20023;-86
2021/07/18 10:10:40;;;;;;;2.38;1.85;;;;;;;26.97;51.82;100531.56;6068653;23;20463;-86
2021/07/18 10:13:07;;;;;;;2.67;1.70;;;;;;;27.04;51.19;100519.91;6068625;23;20026;-84
2021/07/18 10:15:34;;;;;;;2.63;1.85;;;;;;;27.13;51.85;100519.84;6068291;23;20030;-83
2021/07/18 10:18:01;;;;;;;1.85;1.58;;;;;;;27.20;52.37;100518.09;6067880;23;20029;-84
2021/07/18 10:20:28;;;;;;;1.98;1.77;;;;;;;27.28;50.79;100525.34;6068610;23;20031;-85
2021/07/18 10:22:56;;;;;;;3.15;1.83;;;;;;;27.35;52.11;100520.06;6068407;23;20023;-84
2021/07/18 10:25:25;;;;;;;2.78;1.88;;;;;;;27.42;51.02;100515.59;6068730;23;20046;-84
2021/07/18 10:27:52;;;;;;;3.95;1.83;;;;;;;27.51;50.79;100514.50;6069115;23;20364;-83
2021/07/18 10:30:20;;;;;;;4.18;1.83;;;;;;;27.60;50.30;100509.88;6066971;23;20033;-85
2021/07/18 10:32:51;;;;;;;2.50;1.55;;;;;;;27.67;49.04;100515.44;6070576;23;20042;-85
2021/07/18 10:35:22;;;;;;;1.90;1.60;;;;;;;27.75;49.89;100512.66;6066710;23;20080;-85
2021/07/18 10:37:49;;;;;;;4.25;2.25;;;;;;;27.84;50.45;100508.84;6068516;23;20026;-84
2021/07/18 10:40:22;;;;;;;4.90;1.60;;;;;;;27.93;50.32;100512.34;6070791;23;20023;-84
2021/07/18 10:42:50;;;;;;;2.22;1.60;;;;;;;28.05;49.46;100510.00;6069522;23;20367;-84
2021/07/18 10:45:26;;;;;;;2.35;1.60;;;;;;;28.18;49.40;100509.34;6068444;23;20026;-84
2021/07/18 10:47:56;;;;;;;4.78;2.05;;;;;;;28.31;47.98;100502.50;6067495;23;20030;-85
2021/07/18 10:50:49;;;;;;;2.30;1.60;;;;;;;28.44;48.54;100502.66;6068480;23;20023;-84
2021/07/18 10:53:30;;;;;;;3.30;2.03;;;;;;;28.66;47.98;100508.16;6066354;23;20027;-84
2021/07/18 10:55:59;;;;;;;1.90;1.38;;;;;;;28.94;49.28;100501.22;6068006;23;20023;-85
2021/07/18 10:58:41;;;;;;;2.42;1.63;;;;;;;29.25;48.40;100509.06;6067621;23;20030;-83
2021/07/18 11:01:10;;;;;;;1.33;1.23;;;;;;;29.72;48.46;100502.41;6067749;23;20023;-83
2021/07/18 11:03:41;;;;;;;1.63;1.50;;;;;;;30.22;48.69;100506.94;6066336;23;20019;-85
2021/07/18 11:06:21;;;;;;;2.92;1.70;;;;;;;30.74;47.73;100509.31;6068500;23;20022;-84
2021/07/18 11:09:10;;;;;;;2.70;1.60;;;;;;;31.32;46.46;100510.78;6068380;23;20027;-84
2021/07/18 11:11:43;;;;;;;2.10;1.42;;;;;;;31.89;44.03;100506.81;6067163;23;20023;-84
2021/07/18 11:14:36;;;;;;;1.42;1.30;;;;;;;32.43;44.51;100501.25;6068292;23;20030;-85
2021/07/18 11:17:08;;;;;;;1.67;1.45;;;;;;;32.97;43.82;100498.31;6066714;23;20351;-84
2021/07/18 11:19:35;;;;;;;1.67;1.30;;;;;;;33.40;42.71;100491.31;6068739;23;20033;-85
2021/07/18 11:22:06;;;;;;;1.98;1.20;;;;;;;33.79;41.80;100492.06;6067368;23;20485;-83
2021/07/18 11:24:54;;;;;;;3.22;1.20;;;;;;;34.13;40.70;100483.56;6068420;23;20098;-84
2021/07/18 11:27:45;;;;;;;1.95;1.30;;;;;;;34.45;40.22;100482.56;6068217;23;20030;-85
2021/07/18 11:30:38;;;;;;;1.25;0.98;;;;;;;34.72;39.26;100474.06;6067752;23;20034;-84
2021/07/18 11:33:30;;;;;;;1.77;1.45;;;;;;;34.99;39.24;100476.41;6070337;23;20023;-84